sensor_id;sensor_type;location;lat;lon;timestamp;P1;durP1;ratioP1;P2;durP2;ratioP2
54235;SDS011;40151;43.606;1.472;2022-08-01T00:03:25;3.65;;;2.00;;
54235;SDS011;40151;43.606;1.472;2022-08-01T00:05:51;2.83;;;2.22;;
54235;SDS011;40151;43.606;1.472;2022-08-01T00:08:54;2.95;;;2.13;;
54235;SDS011;40151;43.606;1.472;2022-08-01T00:11:23;2.83;;;2.08;;
54235;SDS011;40151;43.606;1.472;2022-08-01T00:13:49;3.50;;;2.28;;
54235;SDS011;40151;43.606;1.472;2022-08-01T00:16:14;3.58;;;2.40;;
54235;SDS011;40151;43.606;1.472;2022-08-01T00:18:41;3.53;;;2.60;;
54235;SDS011;40151;43.606;1.472;2022-08-01T00:21:11;3.70;;;2.28;;
54235;SDS011;40151;43.606;1.472;2022-08-01T00:23:43;3.42;;;2.50;;
54235;SDS011;40151;43.606;1.472;2022-08-01T00:26:34;3.40;;;2.45;;
54235;SDS011;40151;43.606;1.472;2022-08-01T00:29:03;4.53;;;2.65;;
54235;SDS011;40151;43.606;1.472;2022-08-01T00:31:35;3.08;;;2.25;;
54235;SDS011;40151;43.606;1.472;2022-08-01T00:34:01;3.83;;;2.53;;
54235;SDS011;40151;43.606;1.472;2022-08-01T00:36:36;3.47;;;2.35;;
54235;SDS011;40151;43.606;1.472;2022-08-01T00:48:43;2.97;;;2.20;;
54235;SDS011;40151;43.606;1.472;2022-08-01T00:51:14;3.22;;;2.10;;
54235;SDS011;40151;43.606;1.472;2022-08-01T00:56:59;2.88;;;2.00;;
54235;SDS011;40151;43.606;1.472;2022-08-01T00:59:25;3.13;;;2.20;;
54235;SDS011;40151;43.606;1.472;2022-08-01T01:05:40;3.42;;;2.13;;
54235;SDS011;40151;43.606;1.472;2022-08-01T01:08:22;4.28;;;2.20;;
54235;SDS011;40151;43.606;1.472;2022-08-01T01:10:57;3.97;;;2.20;;
54235;SDS011;40151;43.606;1.472;2022-08-01T01:13:43;3.97;;;2.45;;
54235;SDS011;40151;43.606;1.472;2022-08-01T01:16:32;3.08;;;2.42;;
54235;SDS011;40151;43.606;1.472;2022-08-01T01:19:16;3.70;;;2.20;;
54235;SDS011;40151;43.606;1.472;2022-08-01T01:34:28;3.33;;;2.38;;
54235;SDS011;40151;43.606;1.472;2022-08-01T01:37:21;3.13;;;2.40;;
54235;SDS011;40151;43.606;1.472;2022-08-01T01:39:51;3.70;;;2.25;;
54235;SDS011;40151;43.606;1.472;2022-08-01T01:50:07;3.60;;;2.50;;
54235;SDS011;40151;43.606;1.472;2022-08-01T01:53:06;3.70;;;2.65;;
54235;SDS011;40151;43.606;1.472;2022-08-01T02:06:04;4.15;;;2.90;;
54235;SDS011;40151;43.606;1.472;2022-08-01T02:09:21;5.60;;;2.72;;
54235;SDS011;40151;43.606;1.472;2022-08-01T02:52:00;3.53;;;2.83;;
54235;SDS011;40151;43.606;1.472;2022-08-01T02:58:09;3.50;;;2.70;;
54235;SDS011;40151;43.606;1.472;2022-08-01T03:22:05;4.70;;;3.20;;
54235;SDS011;40151;43.606;1.472;2022-08-01T03:28:37;4.15;;;3.33;;
54235;SDS011;40151;43.606;1.472;2022-08-01T03:57:49;4.50;;;3.03;;
54235;SDS011;40151;43.606;1.472;2022-08-01T04:03:51;5.03;;;3.17;;
54235;SDS011;40151;43.606;1.472;2022-08-01T04:06:41;4.30;;;3.42;;
54235;SDS011;40151;43.606;1.472;2022-08-01T04:16:05;5.00;;;3.35;;
54235;SDS011;40151;43.606;1.472;2022-08-01T04:19:15;4.38;;;3.22;;
54235;SDS011;40151;43.606;1.472;2022-08-01T04:55:21;5.85;;;3.10;;
54235;SDS011;40151;43.606;1.472;2022-08-01T04:58:08;4.68;;;3.30;;
54235;SDS011;40151;43.606;1.472;2022-08-01T05:31:10;5.33;;;2.73;;
54235;SDS011;40151;43.606;1.472;2022-08-01T05:47:48;4.78;;;3.03;;
54235;SDS011;40151;43.606;1.472;2022-08-01T06:13:53;4.85;;;3.38;;
54235;SDS011;40151;43.606;1.472;2022-08-01T06:33:02;5.32;;;4.03;;
54235;SDS011;40151;43.606;1.472;2022-08-01T06:39:16;5.85;;;3.75;;
54235;SDS011;40151;43.606;1.472;2022-08-01T06:44:44;5.18;;;3.63;;
54235;SDS011;40151;43.606;1.472;2022-08-01T06:53:38;5.28;;;4.03;;
54235;SDS011;40151;43.606;1.472;2022-08-01T06:56:26;5.93;;;4.45;;
54235;SDS011;40151;43.606;1.472;2022-08-01T07:00:04;5.43;;;4.00;;
54235;SDS011;40151;43.606;1.472;2022-08-01T07:03:18;7.07;;;4.30;;
54235;SDS011;40151;43.606;1.472;2022-08-01T07:05:58;6.10;;;4.65;;
54235;SDS011;40151;43.606;1.472;2022-08-01T07:11:12;5.68;;;4.68;;
54235;SDS011;40151;43.606;1.472;2022-08-01T07:20:29;7.78;;;4.65;;
54235;SDS011;40151;43.606;1.472;2022-08-01T07:22:59;6.53;;;5.38;;
54235;SDS011;40151;43.606;1.472;2022-08-01T07:28:37;7.53;;;4.72;;
54235;SDS011;40151;43.606;1.472;2022-08-01T07:45:27;7.85;;;5.25;;
54235;SDS011;40151;43.606;1.472;2022-08-01T07:48:25;6.40;;;4.95;;
54235;SDS011;40151;43.606;1.472;2022-08-01T07:57:56;7.63;;;5.40;;
54235;SDS011;40151;43.606;1.472;2022-08-01T08:09:58;6.60;;;5.53;;
54235;SDS011;40151;43.606;1.472;2022-08-01T08:13:02;7.93;;;5.43;;
54235;SDS011;40151;43.606;1.472;2022-08-01T08:18:57;7.35;;;5.80;;
54235;SDS011;40151;43.606;1.472;2022-08-01T08:24:36;6.68;;;5.70;;
54235;SDS011;40151;43.606;1.472;2022-08-01T08:38:11;7.53;;;5.15;;
54235;SDS011;40151;43.606;1.472;2022-08-01T08:44:51;8.57;;;5.95;;
54235;SDS011;40151;43.606;1.472;2022-08-01T08:47:41;7.53;;;5.60;;
54235;SDS011;40151;43.606;1.472;2022-08-01T08:50:12;7.35;;;5.50;;
54235;SDS011;40151;43.606;1.472;2022-08-01T08:52:41;7.18;;;5.93;;
54235;SDS011;40151;43.606;1.472;2022-08-01T08:55:12;5.90;;;5.10;;
54235;SDS011;40151;43.606;1.472;2022-08-01T09:15:11;7.13;;;5.43;;
54235;SDS011;40151;43.606;1.472;2022-08-01T09:22:01;5.57;;;4.50;;
54235;SDS011;40151;43.606;1.472;2022-08-01T09:24:56;5.30;;;4.35;;
54235;SDS011;40151;43.606;1.472;2022-08-01T09:28:14;5.32;;;4.68;;
54235;SDS011;40151;43.606;1.472;2022-08-01T09:31:15;5.93;;;4.80;;
54235;SDS011;40151;43.606;1.472;2022-08-01T09:37:16;6.32;;;5.05;;
54235;SDS011;40151;43.606;1.472;2022-08-01T09:40:04;6.38;;;5.00;;
54235;SDS011;40151;43.606;1.472;2022-08-01T09:42:37;5.95;;;4.50;;
54235;SDS011;40151;43.606;1.472;2022-08-01T09:54:41;5.93;;;4.60;;
54235;SDS011;40151;43.606;1.472;2022-08-01T10:06:39;6.30;;;5.00;;
54235;SDS011;40151;43.606;1.472;2022-08-01T10:11:54;6.90;;;5.13;;
54235;SDS011;40151;43.606;1.472;2022-08-01T10:14:31;5.78;;;4.63;;
54235;SDS011;40151;43.606;1.472;2022-08-01T10:17:08;6.38;;;4.95;;
54235;SDS011;40151;43.606;1.472;2022-08-01T10:19:58;7.18;;;4.80;;
54235;SDS011;40151;43.606;1.472;2022-08-01T10:23:09;5.90;;;4.68;;
54235;SDS011;40151;43.606;1.472;2022-08-01T10:25:40;5.72;;;4.95;;
54235;SDS011;40151;43.606;1.472;2022-08-01T10:31:39;6.68;;;5.40;;
54235;SDS011;40151;43.606;1.472;2022-08-01T10:34:11;6.07;;;4.45;;
54235;SDS011;40151;43.606;1.472;2022-08-01T10:37:13;6.40;;;4.68;;
54235;SDS011;40151;43.606;1.472;2022-08-01T10:39:42;5.95;;;4.78;;
54235;SDS011;40151;43.606;1.472;2022-08-01T10:42:11;6.25;;;4.93;;
54235;SDS011;40151;43.606;1.472;2022-08-01T10:48:14;5.57;;;4.57;;
54235;SDS011;40151;43.606;1.472;2022-08-01T10:54:40;4.72;;;3.90;;
54235;SDS011;40151;43.606;1.472;2022-08-01T11:10:14;5.40;;;4.25;;
54235;SDS011;40151;43.606;1.472;2022-08-01T11:20:10;5.18;;;3.97;;
54235;SDS011;40151;43.606;1.472;2022-08-01T11:30:43;6.28;;;4.75;;
54235;SDS011;40151;43.606;1.472;2022-08-01T11:36:21;4.50;;;3.50;;
54235;SDS011;40151;43.606;1.472;2022-08-01T11:41:37;4.40;;;3.58;;
54235;SDS011;40151;43.606;1.472;2022-08-01T11:52:32;4.72;;;4.07;;
54235;SDS011;40151;43.606;1.472;2022-08-01T11:55:07;4.50;;;3.75;;
54235;SDS011;40151;43.606;1.472;2022-08-01T11:57:34;4.85;;;3.85;;
54235;SDS011;40151;43.606;1.472;2022-08-01T12:00:14;5.55;;;3.67;;
54235;SDS011;40151;43.606;1.472;2022-08-01T12:02:44;4.57;;;3.50;;
54235;SDS011;40151;43.606;1.472;2022-08-01T12:05:14;4.68;;;4.00;;
54235;SDS011;40151;43.606;1.472;2022-08-01T12:07:59;4.25;;;3.22;;
54235;SDS011;40151;43.606;1.472;2022-08-01T12:10:27;4.75;;;3.33;;
54235;SDS011;40151;43.606;1.472;2022-08-01T12:13:03;3.88;;;3.22;;
54235;SDS011;40151;43.606;1.472;2022-08-01T12:15:32;4.70;;;3.58;;
54235;SDS011;40151;43.606;1.472;2022-08-01T12:18:05;4.68;;;3.47;;
54235;SDS011;40151;43.606;1.472;2022-08-01T12:20:36;4.90;;;3.80;;
54235;SDS011;40151;43.606;1.472;2022-08-01T12:23:43;4.55;;;3.88;;
54235;SDS011;40151;43.606;1.472;2022-08-01T12:26:43;5.10;;;3.72;;
54235;SDS011;40151;43.606;1.472;2022-08-01T12:32:31;4.45;;;3.72;;
54235;SDS011;40151;43.606;1.472;2022-08-01T12:35:16;4.20;;;3.25;;
54235;SDS011;40151;43.606;1.472;2022-08-01T12:37:44;4.88;;;4.00;;
54235;SDS011;40151;43.606;1.472;2022-08-01T12:40:35;4.57;;;3.63;;
54235;SDS011;40151;43.606;1.472;2022-08-01T12:43:07;4.35;;;3.67;;
54235;SDS011;40151;43.606;1.472;2022-08-01T12:45:34;4.88;;;3.67;;
54235;SDS011;40151;43.606;1.472;2022-08-01T12:48:05;4.60;;;3.45;;
54235;SDS011;40151;43.606;1.472;2022-08-01T12:50:33;4.70;;;3.58;;
54235;SDS011;40151;43.606;1.472;2022-08-01T12:53:05;5.45;;;3.40;;
54235;SDS011;40151;43.606;1.472;2022-08-01T12:55:31;4.75;;;3.78;;
54235;SDS011;40151;43.606;1.472;2022-08-01T12:58:11;4.32;;;3.45;;
54235;SDS011;40151;43.606;1.472;2022-08-01T13:00:38;4.78;;;3.47;;
54235;SDS011;40151;43.606;1.472;2022-08-01T13:03:06;4.28;;;3.45;;
54235;SDS011;40151;43.606;1.472;2022-08-01T13:05:47;4.47;;;3.40;;
54235;SDS011;40151;43.606;1.472;2022-08-01T13:08:22;4.72;;;3.30;;
54235;SDS011;40151;43.606;1.472;2022-08-01T13:11:03;3.95;;;3.35;;
54235;SDS011;40151;43.606;1.472;2022-08-01T13:13:38;4.55;;;3.28;;
54235;SDS011;40151;43.606;1.472;2022-08-01T13:16:05;4.70;;;3.33;;
54235;SDS011;40151;43.606;1.472;2022-08-01T13:18:34;4.78;;;3.63;;
54235;SDS011;40151;43.606;1.472;2022-08-01T13:21:17;4.40;;;2.78;;
54235;SDS011;40151;43.606;1.472;2022-08-01T13:24:04;4.38;;;3.13;;
54235;SDS011;40151;43.606;1.472;2022-08-01T13:29:17;4.65;;;3.05;;
54235;SDS011;40151;43.606;1.472;2022-08-01T13:31:46;4.38;;;3.13;;
54235;SDS011;40151;43.606;1.472;2022-08-01T13:34:12;4.78;;;3.28;;
54235;SDS011;40151;43.606;1.472;2022-08-01T13:36:38;4.68;;;3.33;;
54235;SDS011;40151;43.606;1.472;2022-08-01T13:39:05;3.72;;;2.88;;
54235;SDS011;40151;43.606;1.472;2022-08-01T13:41:53;4.57;;;3.35;;
54235;SDS011;40151;43.606;1.472;2022-08-01T13:44:19;4.75;;;3.28;;
54235;SDS011;40151;43.606;1.472;2022-08-01T13:46:46;4.60;;;3.90;;
54235;SDS011;40151;43.606;1.472;2022-08-01T13:49:16;4.55;;;3.42;;
54235;SDS011;40151;43.606;1.472;2022-08-01T13:51:42;5.00;;;3.60;;
54235;SDS011;40151;43.606;1.472;2022-08-01T13:54:08;4.20;;;3.10;;
54235;SDS011;40151;43.606;1.472;2022-08-01T13:56:34;4.70;;;3.47;;
54235;SDS011;40151;43.606;1.472;2022-08-01T13:59:00;5.20;;;3.53;;
54235;SDS011;40151;43.606;1.472;2022-08-01T14:01:26;4.47;;;3.25;;
54235;SDS011;40151;43.606;1.472;2022-08-01T14:03:52;3.85;;;2.95;;
54235;SDS011;40151;43.606;1.472;2022-08-01T14:06:18;4.82;;;3.50;;
54235;SDS011;40151;43.606;1.472;2022-08-01T14:08:46;5.05;;;3.30;;
54235;SDS011;40151;43.606;1.472;2022-08-01T14:11:14;4.55;;;3.08;;
54235;SDS011;40151;43.606;1.472;2022-08-01T14:13:43;3.85;;;2.85;;
54235;SDS011;40151;43.606;1.472;2022-08-01T14:16:10;4.20;;;3.10;;
54235;SDS011;40151;43.606;1.472;2022-08-01T14:18:36;4.38;;;3.42;;
54235;SDS011;40151;43.606;1.472;2022-08-01T14:21:02;4.07;;;3.40;;
54235;SDS011;40151;43.606;1.472;2022-08-01T14:23:28;4.15;;;2.92;;
54235;SDS011;40151;43.606;1.472;2022-08-01T14:25:54;4.57;;;3.00;;
54235;SDS011;40151;43.606;1.472;2022-08-01T14:28:20;4.10;;;2.83;;
54235;SDS011;40151;43.606;1.472;2022-08-01T14:30:46;3.95;;;3.03;;
54235;SDS011;40151;43.606;1.472;2022-08-01T14:33:12;4.22;;;3.33;;
54235;SDS011;40151;43.606;1.472;2022-08-01T14:35:39;4.60;;;2.85;;
54235;SDS011;40151;43.606;1.472;2022-08-01T14:38:05;4.13;;;3.30;;
54235;SDS011;40151;43.606;1.472;2022-08-01T14:40:31;4.28;;;3.28;;
54235;SDS011;40151;43.606;1.472;2022-08-01T14:42:58;4.15;;;3.38;;
54235;SDS011;40151;43.606;1.472;2022-08-01T14:45:26;3.67;;;3.13;;
54235;SDS011;40151;43.606;1.472;2022-08-01T14:47:52;4.90;;;3.47;;
54235;SDS011;40151;43.606;1.472;2022-08-01T14:50:18;4.25;;;3.35;;
54235;SDS011;40151;43.606;1.472;2022-08-01T14:52:48;4.47;;;2.97;;
54235;SDS011;40151;43.606;1.472;2022-08-01T14:55:15;4.95;;;3.22;;
54235;SDS011;40151;43.606;1.472;2022-08-01T14:57:51;3.80;;;2.78;;
54235;SDS011;40151;43.606;1.472;2022-08-01T15:00:20;3.80;;;2.90;;
54235;SDS011;40151;43.606;1.472;2022-08-01T15:02:53;4.30;;;2.88;;
54235;SDS011;40151;43.606;1.472;2022-08-01T15:05:20;5.05;;;3.33;;
54235;SDS011;40151;43.606;1.472;2022-08-01T15:07:55;4.15;;;2.92;;
54235;SDS011;40151;43.606;1.472;2022-08-01T15:10:21;4.00;;;3.03;;
54235;SDS011;40151;43.606;1.472;2022-08-01T15:12:48;3.78;;;2.85;;
54235;SDS011;40151;43.606;1.472;2022-08-01T15:15:14;4.35;;;2.72;;
54235;SDS011;40151;43.606;1.472;2022-08-01T15:17:40;4.45;;;3.03;;
54235;SDS011;40151;43.606;1.472;2022-08-01T15:20:06;4.13;;;3.30;;
54235;SDS011;40151;43.606;1.472;2022-08-01T15:22:33;3.53;;;2.90;;
54235;SDS011;40151;43.606;1.472;2022-08-01T15:24:59;4.50;;;3.08;;
54235;SDS011;40151;43.606;1.472;2022-08-01T15:27:26;3.40;;;2.65;;
54235;SDS011;40151;43.606;1.472;2022-08-01T15:29:52;3.22;;;2.60;;
54235;SDS011;40151;43.606;1.472;2022-08-01T15:32:22;3.50;;;2.70;;
54235;SDS011;40151;43.606;1.472;2022-08-01T15:34:48;5.70;;;2.75;;
54235;SDS011;40151;43.606;1.472;2022-08-01T15:37:14;3.78;;;2.70;;
54235;SDS011;40151;43.606;1.472;2022-08-01T15:39:43;3.80;;;2.78;;
54235;SDS011;40151;43.606;1.472;2022-08-01T15:42:12;5.20;;;2.70;;
54235;SDS011;40151;43.606;1.472;2022-08-01T15:44:43;3.40;;;2.63;;
54235;SDS011;40151;43.606;1.472;2022-08-01T15:47:09;3.33;;;2.42;;
54235;SDS011;40151;43.606;1.472;2022-08-01T15:49:37;3.47;;;2.47;;
54235;SDS011;40151;43.606;1.472;2022-08-01T15:52:04;3.72;;;2.55;;
54235;SDS011;40151;43.606;1.472;2022-08-01T15:54:30;4.55;;;3.05;;
54235;SDS011;40151;43.606;1.472;2022-08-01T15:56:57;3.95;;;2.90;;
54235;SDS011;40151;43.606;1.472;2022-08-01T15:59:23;3.95;;;3.00;;
54235;SDS011;40151;43.606;1.472;2022-08-01T16:01:54;4.13;;;2.70;;
54235;SDS011;40151;43.606;1.472;2022-08-01T16:04:23;3.47;;;2.50;;
54235;SDS011;40151;43.606;1.472;2022-08-01T16:06:49;3.70;;;2.75;;
54235;SDS011;40151;43.606;1.472;2022-08-01T16:09:15;3.90;;;2.70;;
54235;SDS011;40151;43.606;1.472;2022-08-01T16:11:52;3.45;;;2.72;;
54235;SDS011;40151;43.606;1.472;2022-08-01T16:14:28;3.65;;;2.63;;
54235;SDS011;40151;43.606;1.472;2022-08-01T16:16:54;3.78;;;2.97;;
54235;SDS011;40151;43.606;1.472;2022-08-01T16:19:20;4.07;;;2.70;;
54235;SDS011;40151;43.606;1.472;2022-08-01T16:21:48;4.35;;;2.80;;
54235;SDS011;40151;43.606;1.472;2022-08-01T16:24:16;3.78;;;2.70;;
54235;SDS011;40151;43.606;1.472;2022-08-01T16:26:42;3.67;;;2.80;;
54235;SDS011;40151;43.606;1.472;2022-08-01T16:29:08;3.30;;;2.53;;
54235;SDS011;40151;43.606;1.472;2022-08-01T16:31:41;4.00;;;2.78;;
54235;SDS011;40151;43.606;1.472;2022-08-01T16:34:07;3.80;;;2.78;;
54235;SDS011;40151;43.606;1.472;2022-08-01T16:36:33;4.70;;;2.78;;
54235;SDS011;40151;43.606;1.472;2022-08-01T16:38:59;3.40;;;2.60;;
54235;SDS011;40151;43.606;1.472;2022-08-01T16:41:32;3.38;;;2.60;;
54235;SDS011;40151;43.606;1.472;2022-08-01T16:44:21;4.55;;;2.70;;
54235;SDS011;40151;43.606;1.472;2022-08-01T16:46:57;4.63;;;2.47;;
54235;SDS011;40151;43.606;1.472;2022-08-01T16:49:36;3.97;;;2.70;;
54235;SDS011;40151;43.606;1.472;2022-08-01T16:52:46;4.45;;;2.80;;
54235;SDS011;40151;43.606;1.472;2022-08-01T16:55:15;3.35;;;2.50;;
54235;SDS011;40151;43.606;1.472;2022-08-01T16:57:41;4.45;;;2.70;;
54235;SDS011;40151;43.606;1.472;2022-08-01T17:00:08;3.80;;;2.80;;
54235;SDS011;40151;43.606;1.472;2022-08-01T17:02:35;3.22;;;2.42;;
54235;SDS011;40151;43.606;1.472;2022-08-01T17:05:19;4.28;;;2.50;;
54235;SDS011;40151;43.606;1.472;2022-08-01T17:07:47;3.42;;;2.50;;
54235;SDS011;40151;43.606;1.472;2022-08-01T17:10:24;3.63;;;2.50;;
54235;SDS011;40151;43.606;1.472;2022-08-01T17:12:50;3.08;;;2.28;;
54235;SDS011;40151;43.606;1.472;2022-08-01T17:15:20;3.67;;;2.55;;
54235;SDS011;40151;43.606;1.472;2022-08-01T17:17:50;3.60;;;2.40;;
54235;SDS011;40151;43.606;1.472;2022-08-01T17:20:26;3.33;;;2.50;;
54235;SDS011;40151;43.606;1.472;2022-08-01T17:23:07;4.57;;;2.70;;
54235;SDS011;40151;43.606;1.472;2022-08-01T17:25:44;3.15;;;2.45;;
54235;SDS011;40151;43.606;1.472;2022-08-01T17:28:10;3.10;;;2.33;;
54235;SDS011;40151;43.606;1.472;2022-08-01T17:30:36;3.28;;;2.45;;
54235;SDS011;40151;43.606;1.472;2022-08-01T17:33:19;4.07;;;2.55;;
54235;SDS011;40151;43.606;1.472;2022-08-01T17:35:56;3.35;;;2.08;;
54235;SDS011;40151;43.606;1.472;2022-08-01T17:38:24;3.50;;;2.50;;
54235;SDS011;40151;43.606;1.472;2022-08-01T17:40:53;3.33;;;2.33;;
54235;SDS011;40151;43.606;1.472;2022-08-01T17:43:19;4.13;;;2.70;;
54235;SDS011;40151;43.606;1.472;2022-08-01T17:45:45;3.30;;;2.40;;
54235;SDS011;40151;43.606;1.472;2022-08-01T17:48:12;3.47;;;2.72;;
54235;SDS011;40151;43.606;1.472;2022-08-01T17:50:43;4.18;;;2.20;;
54235;SDS011;40151;43.606;1.472;2022-08-01T17:53:13;2.90;;;2.33;;
54235;SDS011;40151;43.606;1.472;2022-08-01T17:55:40;4.07;;;2.90;;
54235;SDS011;40151;43.606;1.472;2022-08-01T17:58:07;4.00;;;2.60;;
54235;SDS011;40151;43.606;1.472;2022-08-01T18:00:34;3.45;;;2.30;;
54235;SDS011;40151;43.606;1.472;2022-08-01T18:03:02;4.03;;;2.72;;
54235;SDS011;40151;43.606;1.472;2022-08-01T18:05:30;3.83;;;2.45;;
54235;SDS011;40151;43.606;1.472;2022-08-01T18:07:56;4.57;;;2.60;;
54235;SDS011;40151;43.606;1.472;2022-08-01T18:10:22;3.20;;;2.30;;
54235;SDS011;40151;43.606;1.472;2022-08-01T18:12:47;3.28;;;2.25;;
54235;SDS011;40151;43.606;1.472;2022-08-01T18:15:13;3.67;;;2.53;;
54235;SDS011;40151;43.606;1.472;2022-08-01T18:17:39;2.97;;;2.17;;
54235;SDS011;40151;43.606;1.472;2022-08-01T18:20:05;3.25;;;2.33;;
54235;SDS011;40151;43.606;1.472;2022-08-01T18:22:32;4.10;;;2.40;;
54235;SDS011;40151;43.606;1.472;2022-08-01T18:24:58;4.50;;;2.22;;
54235;SDS011;40151;43.606;1.472;2022-08-01T18:27:27;3.30;;;2.33;;
54235;SDS011;40151;43.606;1.472;2022-08-01T18:29:53;3.20;;;2.20;;
54235;SDS011;40151;43.606;1.472;2022-08-01T18:32:22;3.33;;;2.22;;
54235;SDS011;40151;43.606;1.472;2022-08-01T18:34:48;3.70;;;2.47;;
54235;SDS011;40151;43.606;1.472;2022-08-01T18:37:15;2.92;;;2.28;;
54235;SDS011;40151;43.606;1.472;2022-08-01T18:39:41;3.00;;;2.38;;
54235;SDS011;40151;43.606;1.472;2022-08-01T18:42:07;2.58;;;2.17;;
54235;SDS011;40151;43.606;1.472;2022-08-01T18:44:33;2.80;;;2.30;;
54235;SDS011;40151;43.606;1.472;2022-08-01T18:47:01;3.15;;;2.50;;
54235;SDS011;40151;43.606;1.472;2022-08-01T18:49:27;3.50;;;2.20;;
54235;SDS011;40151;43.606;1.472;2022-08-01T18:51:53;3.83;;;2.78;;
54235;SDS011;40151;43.606;1.472;2022-08-01T18:54:18;3.58;;;2.60;;
54235;SDS011;40151;43.606;1.472;2022-08-01T18:56:44;2.85;;;2.25;;
54235;SDS011;40151;43.606;1.472;2022-08-01T18:59:14;2.95;;;2.20;;
54235;SDS011;40151;43.606;1.472;2022-08-01T19:01:40;3.15;;;2.35;;
54235;SDS011;40151;43.606;1.472;2022-08-01T19:04:06;2.97;;;2.17;;
54235;SDS011;40151;43.606;1.472;2022-08-01T19:06:32;4.43;;;2.58;;
54235;SDS011;40151;43.606;1.472;2022-08-01T19:08:59;3.83;;;2.63;;
54235;SDS011;40151;43.606;1.472;2022-08-01T19:11:25;3.75;;;2.58;;
54235;SDS011;40151;43.606;1.472;2022-08-01T19:13:52;3.05;;;2.30;;
54235;SDS011;40151;43.606;1.472;2022-08-01T19:16:25;3.40;;;2.30;;
54235;SDS011;40151;43.606;1.472;2022-08-01T19:18:52;3.30;;;2.47;;
54235;SDS011;40151;43.606;1.472;2022-08-01T19:21:18;3.28;;;2.60;;
54235;SDS011;40151;43.606;1.472;2022-08-01T19:23:44;3.25;;;2.40;;
54235;SDS011;40151;43.606;1.472;2022-08-01T19:26:29;2.90;;;2.17;;
54235;SDS011;40151;43.606;1.472;2022-08-01T19:29:02;3.35;;;2.45;;
54235;SDS011;40151;43.606;1.472;2022-08-01T19:31:43;2.78;;;2.13;;
54235;SDS011;40151;43.606;1.472;2022-08-01T19:34:11;3.20;;;2.38;;
54235;SDS011;40151;43.606;1.472;2022-08-01T19:36:37;3.25;;;2.38;;
54235;SDS011;40151;43.606;1.472;2022-08-01T19:39:05;3.60;;;2.40;;
54235;SDS011;40151;43.606;1.472;2022-08-01T19:41:34;3.30;;;2.35;;
54235;SDS011;40151;43.606;1.472;2022-08-01T19:44:03;3.65;;;2.50;;
54235;SDS011;40151;43.606;1.472;2022-08-01T19:46:31;3.60;;;2.33;;
54235;SDS011;40151;43.606;1.472;2022-08-01T19:48:59;3.47;;;2.35;;
54235;SDS011;40151;43.606;1.472;2022-08-01T19:51:32;3.33;;;2.08;;
54235;SDS011;40151;43.606;1.472;2022-08-01T19:54:05;3.90;;;2.80;;
54235;SDS011;40151;43.606;1.472;2022-08-01T19:56:38;3.47;;;2.47;;
54235;SDS011;40151;43.606;1.472;2022-08-01T19:59:20;2.72;;;2.20;;
54235;SDS011;40151;43.606;1.472;2022-08-01T20:01:47;3.53;;;2.45;;
54235;SDS011;40151;43.606;1.472;2022-08-01T20:04:15;3.05;;;2.13;;
54235;SDS011;40151;43.606;1.472;2022-08-01T20:06:43;3.72;;;2.47;;
54235;SDS011;40151;43.606;1.472;2022-08-01T20:09:10;2.72;;;2.10;;
54235;SDS011;40151;43.606;1.472;2022-08-01T20:11:37;3.50;;;2.40;;
54235;SDS011;40151;43.606;1.472;2022-08-01T20:14:12;3.13;;;2.33;;
54235;SDS011;40151;43.606;1.472;2022-08-01T20:16:50;2.90;;;2.30;;
54235;SDS011;40151;43.606;1.472;2022-08-01T20:19:32;3.03;;;2.60;;
54235;SDS011;40151;43.606;1.472;2022-08-01T20:21:59;3.58;;;2.55;;
54235;SDS011;40151;43.606;1.472;2022-08-01T20:24:39;3.53;;;2.55;;
54235;SDS011;40151;43.606;1.472;2022-08-01T20:27:08;2.90;;;2.15;;
54235;SDS011;40151;43.606;1.472;2022-08-01T20:29:34;3.60;;;2.45;;
54235;SDS011;40151;43.606;1.472;2022-08-01T20:32:02;3.47;;;2.30;;
54235;SDS011;40151;43.606;1.472;2022-08-01T20:34:34;3.08;;;2.25;;
54235;SDS011;40151;43.606;1.472;2022-08-01T20:37:07;3.22;;;2.30;;
54235;SDS011;40151;43.606;1.472;2022-08-01T20:39:35;3.25;;;2.38;;
54235;SDS011;40151;43.606;1.472;2022-08-01T20:42:04;2.63;;;2.15;;
54235;SDS011;40151;43.606;1.472;2022-08-01T20:44:33;2.92;;;2.00;;
54235;SDS011;40151;43.606;1.472;2022-08-01T20:46:59;2.65;;;2.03;;
54235;SDS011;40151;43.606;1.472;2022-08-01T20:49:26;3.40;;;2.30;;
54235;SDS011;40151;43.606;1.472;2022-08-01T20:52:04;3.13;;;2.10;;
54235;SDS011;40151;43.606;1.472;2022-08-01T20:54:30;2.65;;;1.90;;
54235;SDS011;40151;43.606;1.472;2022-08-01T20:56:57;2.83;;;2.30;;
54235;SDS011;40151;43.606;1.472;2022-08-01T21:04:57;3.03;;;2.17;;
54235;SDS011;40151;43.606;1.472;2022-08-01T21:07:26;2.75;;;2.05;;
54235;SDS011;40151;43.606;1.472;2022-08-01T21:10:08;2.70;;;2.08;;
54235;SDS011;40151;43.606;1.472;2022-08-01T21:12:39;2.78;;;2.08;;
54235;SDS011;40151;43.606;1.472;2022-08-01T21:15:08;2.90;;;2.10;;
54235;SDS011;40151;43.606;1.472;2022-08-01T21:17:48;4.25;;;2.40;;
54235;SDS011;40151;43.606;1.472;2022-08-01T21:20:20;2.97;;;2.28;;
54235;SDS011;40151;43.606;1.472;2022-08-01T21:22:51;3.00;;;2.30;;
54235;SDS011;40151;43.606;1.472;2022-08-01T21:25:29;3.25;;;2.33;;
54235;SDS011;40151;43.606;1.472;2022-08-01T21:27:59;2.72;;;2.15;;
54235;SDS011;40151;43.606;1.472;2022-08-01T21:30:29;3.00;;;2.20;;
54235;SDS011;40151;43.606;1.472;2022-08-01T21:32:57;3.30;;;2.30;;
54235;SDS011;40151;43.606;1.472;2022-08-01T21:35:26;2.83;;;2.15;;
54235;SDS011;40151;43.606;1.472;2022-08-01T21:37:52;3.00;;;2.13;;
54235;SDS011;40151;43.606;1.472;2022-08-01T21:40:23;3.10;;;2.13;;
54235;SDS011;40151;43.606;1.472;2022-08-01T21:42:51;2.20;;;1.77;;
54235;SDS011;40151;43.606;1.472;2022-08-01T21:45:22;2.47;;;2.03;;
54235;SDS011;40151;43.606;1.472;2022-08-01T21:47:49;2.95;;;2.10;;
54235;SDS011;40151;43.606;1.472;2022-08-01T21:50:16;2.53;;;1.80;;
54235;SDS011;40151;43.606;1.472;2022-08-01T21:52:48;2.47;;;1.90;;
54235;SDS011;40151;43.606;1.472;2022-08-01T21:55:26;2.65;;;2.00;;
54235;SDS011;40151;43.606;1.472;2022-08-01T21:58:16;3.67;;;2.42;;
54235;SDS011;40151;43.606;1.472;2022-08-01T22:01:02;3.78;;;2.15;;
54235;SDS011;40151;43.606;1.472;2022-08-01T22:03:40;2.78;;;2.22;;
54235;SDS011;40151;43.606;1.472;2022-08-01T22:06:12;3.50;;;2.10;;
54235;SDS011;40151;43.606;1.472;2022-08-01T22:08:43;3.45;;;2.35;;
54235;SDS011;40151;43.606;1.472;2022-08-01T22:11:15;2.85;;;2.13;;
54235;SDS011;40151;43.606;1.472;2022-08-01T22:13:53;3.72;;;2.45;;
54235;SDS011;40151;43.606;1.472;2022-08-01T22:16:26;3.30;;;2.35;;
54235;SDS011;40151;43.606;1.472;2022-08-01T22:19:05;3.17;;;2.22;;
54235;SDS011;40151;43.606;1.472;2022-08-01T22:21:37;2.67;;;2.00;;
54235;SDS011;40151;43.606;1.472;2022-08-01T22:24:04;3.38;;;2.38;;
54235;SDS011;40151;43.606;1.472;2022-08-01T22:26:31;3.42;;;2.63;;
54235;SDS011;40151;43.606;1.472;2022-08-01T22:28:59;3.50;;;2.40;;
54235;SDS011;40151;43.606;1.472;2022-08-01T22:31:26;3.22;;;2.08;;
54235;SDS011;40151;43.606;1.472;2022-08-01T22:33:52;4.70;;;2.42;;
54235;SDS011;40151;43.606;1.472;2022-08-01T22:36:19;3.80;;;2.50;;
54235;SDS011;40151;43.606;1.472;2022-08-01T22:38:45;3.10;;;2.10;;
54235;SDS011;40151;43.606;1.472;2022-08-01T22:41:13;3.65;;;2.25;;
54235;SDS011;40151;43.606;1.472;2022-08-01T22:43:41;3.70;;;2.60;;
54235;SDS011;40151;43.606;1.472;2022-08-01T22:54:14;3.17;;;2.25;;
54235;SDS011;40151;43.606;1.472;2022-08-01T22:56:46;3.40;;;2.42;;
54235;SDS011;40151;43.606;1.472;2022-08-01T22:59:22;3.35;;;2.22;;
54235;SDS011;40151;43.606;1.472;2022-08-01T23:01:58;3.97;;;2.22;;
54235;SDS011;40151;43.606;1.472;2022-08-01T23:07:09;3.45;;;2.45;;
54235;SDS011;40151;43.606;1.472;2022-08-01T23:09:35;3.33;;;2.40;;
54235;SDS011;40151;43.606;1.472;2022-08-01T23:12:02;3.58;;;2.40;;
54235;SDS011;40151;43.606;1.472;2022-08-01T23:14:29;5.53;;;2.88;;